Time;durP1;ratioP1;P1;durP2;ratioP2;P2;SDS_P1;SDS_P2;PMS_P1;PMS_P2;Temp;Humidity;BMP_temperature;BMP_pressure;BME280_temperature;BME280_humidity;BME280_pressure;Samples;Min_cycle;Max_cycle;Signal;HPM_P1;HPM_P2
2023/03/15 00:01:58;;;;;;;9.88;2.00;;;;;;;;;;5095462;28;20451;-64
2023/03/15 00:04:25;;;;;;;7.30;1.55;;;;;;;;;;5095376;28;20272;-64
2023/03/15 00:06:53;;;;;;;6.35;1.83;;;;;;;;;;5095523;28;20551;-64
2023/03/15 00:09:21;;;;;;;6.57;1.98;;;;;;;;;;5095405;28;20196;-64
2023/03/15 00:11:49;;;;;;;7.22;1.50;;;;;;;;;;5095910;28;20552;-64
2023/03/15 00:14:16;;;;;;;5.50;1.80;;;;;;;;;;5094423;28;20208;-64
2023/03/15 00:16:43;;;;;;;12.27;1.50;;;;;;;;;;5095087;28;20242;-64
2023/03/15 00:19:10;;;;;;;7.53;1.70;;;;;;;;;;5095510;28;20268;-64
2023/03/15 00:21:38;;;;;;;9.30;1.48;;;;;;;;;;5095365;28;20195;-64
2023/03/15 00:24:05;;;;;;;5.22;1.67;;;;;;;;;;5095319;28;20220;-64
2023/03/15 00:26:32;;;;;;;10.00;1.90;;;;;;;;;;5095166;28;20189;-64
2023/03/15 00:29:01;;;;;;;7.93;1.95;;;;;;;;;;5095034;28;20246;-64
2023/03/15 00:31:27;;;;;;;5.90;2.08;;;;;;;;;;5095186;28;20283;-64
2023/03/15 00:33:54;;;;;;;5.05;1.30;;;;;;;;;;5095085;28;20595;-64
2023/03/15 00:36:23;;;;;;;5.40;1.67;;;;;;;;;;5095053;28;20186;-64
2023/03/15 00:38:50;;;;;;;9.55;1.65;;;;;;;;;;5094987;28;20200;-64
2023/03/15 00:41:18;;;;;;;5.03;1.98;;;;;;;;;;5094831;28;20195;-64
2023/03/15 00:43:45;;;;;;;4.97;1.52;;;;;;;;;;5094764;28;20628;-64
2023/03/15 00:46:14;;;;;;;5.93;1.83;;;;;;;;;;5094861;28;20216;-64
2023/03/15 00:48:41;;;;;;;8.00;2.50;;;;;;;;;;5094749;28;20193;-64
2023/03/15 00:51:09;;;;;;;5.05;1.45;;;;;;;;;;5094625;28;20221;-64
2023/03/15 00:53:37;;;;;;;6.68;1.80;;;;;;;;;;5094612;28;20246;-64
2023/03/15 00:56:04;;;;;;;3.75;1.50;;;;;;;;;;5094494;28;20674;-64
2023/03/15 00:58:31;;;;;;;9.40;1.77;;;;;;;;;;5094495;28;20197;-64
2023/03/15 01:00:59;;;;;;;10.07;1.42;;;;;;;;;;5094343;28;20660;-64
2023/03/15 01:03:27;;;;;;;3.13;1.35;;;;;;;;;;5094577;28;20197;-64
2023/03/15 01:05:54;;;;;;;9.52;2.20;;;;;;;;;;5094490;28;20193;-64
2023/03/15 01:08:23;;;;;;;8.82;1.83;;;;;;;;;;5094269;28;20677;-64
2023/03/15 01:10:50;;;;;;;5.05;1.40;;;;;;;;;;5094100;28;20667;-64
2023/03/15 01:13:16;;;;;;;12.77;3.90;;;;;;;;;;5094489;28;20280;-64
2023/03/15 01:15:45;;;;;;;5.50;2.53;;;;;;;;;;5094284;28;20217;-64
2023/03/15 01:18:12;;;;;;;7.82;1.60;;;;;;;;;;5093993;28;20224;-64
2023/03/15 01:20:44;;;;;;;8.32;1.60;;;;;;;;;;5094101;28;20193;-64
2023/03/15 01:23:11;;;;;;;8.45;1.88;;;;;;;;;;5094058;28;20564;-64
2023/03/15 01:25:38;;;;;;;6.93;1.42;;;;;;;;;;5093877;28;20193;-64
2023/03/15 01:28:05;;;;;;;5.45;1.23;;;;;;;;;;5094022;28;20197;-64
2023/03/15 01:30:32;;;;;;;2.30;1.35;;;;;;;;;;5093848;28;20189;-64
2023/03/15 01:32:59;;;;;;;3.40;1.17;;;;;;;;;;5093690;28;20189;-64
2023/03/15 01:35:26;;;;;;;6.63;2.60;;;;;;;;;;5093558;28;20308;-64
2023/03/15 01:37:54;;;;;;;3.20;1.50;;;;;;;;;;5093607;28;20185;-64
2023/03/15 01:40:21;;;;;;;6.15;1.70;;;;;;;;;;5093637;28;20199;-64
2023/03/15 01:42:52;;;;;;;7.85;2.08;;;;;;;;;;5093680;28;20279;-64
2023/03/15 01:45:38;;;;;;;5.82;1.40;;;;;;;;;;5093524;28;20192;-64
2023/03/15 01:48:05;;;;;;;3.45;1.30;;;;;;;;;;5093369;28;20191;-64
2023/03/15 01:50:32;;;;;;;8.77;2.50;;;;;;;;;;5093106;28;20196;-64
2023/03/15 01:53:00;;;;;;;6.63;1.60;;;;;;;;;;5093485;28;20199;-64
2023/03/15 01:55:27;;;;;;;8.35;1.90;;;;;;;;;;5093312;28;20216;-64
2023/03/15 01:57:56;;;;;;;11.88;3.55;;;;;;;;;;5093257;28;20192;-64
2023/03/15 02:00:23;;;;;;;20.60;5.20;;;;;;;;;;5092996;28;20207;-64
2023/03/15 02:02:52;;;;;;;5.70;2.50;;;;;;;;;;5092984;28;20671;-64
2023/03/15 02:05:21;;;;;;;4.13;1.65;;;;;;;;;;5093210;28;20191;-64
2023/03/15 02:07:49;;;;;;;2.55;1.35;;;;;;;;;;5093425;28;20275;-64
2023/03/15 02:10:19;;;;;;;5.30;1.95;;;;;;;;;;5093290;28;20196;-64
2023/03/15 02:12:47;;;;;;;5.65;1.27;;;;;;;;;;5093445;28;20199;-64
2023/03/15 02:15:15;;;;;;;5.65;1.73;;;;;;;;;;5093005;28;20208;-64
2023/03/15 02:17:43;;;;;;;3.55;1.40;;;;;;;;;;5093011;28;20307;-64
2023/03/15 02:20:16;;;;;;;5.90;1.50;;;;;;;;;;5093125;28;20648;-64
2023/03/15 02:22:46;;;;;;;8.20;2.00;;;;;;;;;;5093063;28;20537;-64
2023/03/15 02:25:18;;;;;;;3.40;1.52;;;;;;;;;;5092787;28;20203;-64
2023/03/15 02:27:46;;;;;;;8.40;2.13;;;;;;;;;;5092743;28;20195;-64
2023/03/15 02:30:14;;;;;;;3.38;1.63;;;;;;;;;;5092800;28;20200;-64
2023/03/15 02:32:41;;;;;;;3.90;1.20;;;;;;;;;;5092830;28;20193;-64
2023/03/15 02:35:08;;;;;;;4.22;1.30;;;;;;;;;;5092608;28;20217;-64
2023/03/15 02:37:35;;;;;;;4.13;1.73;;;;;;;;;;5092160;28;20742;-64
2023/03/15 02:40:04;;;;;;;4.90;1.10;;;;;;;;;;5092675;28;20543;-64
2023/03/15 02:42:31;;;;;;;4.93;1.67;;;;;;;;;;5092628;28;20282;-64
2023/03/15 02:44:59;;;;;;;5.28;1.65;;;;;;;;;;5092917;28;20196;-64
2023/03/15 02:47:28;;;;;;;6.88;1.90;;;;;;;;;;5092828;28;20211;-64
2023/03/15 02:49:55;;;;;;;6.53;2.13;;;;;;;;;;5092594;28;20189;-64
2023/03/15 02:52:22;;;;;;;8.52;1.90;;;;;;;;;;5092635;28;20189;-64
2023/03/15 02:54:50;;;;;;;2.58;1.40;;;;;;;;;;5092453;28;20240;-64
2023/03/15 02:57:17;;;;;;;4.75;1.38;;;;;;;;;;5092680;28;20548;-64
2023/03/15 02:59:45;;;;;;;6.70;2.20;;;;;;;;;;5092217;28;20644;-64
2023/03/15 03:02:13;;;;;;;7.63;1.70;;;;;;;;;;5092561;28;20544;-64
2023/03/15 03:04:41;;;;;;;5.78;1.80;;;;;;;;;;5092391;28;20558;-64
2023/03/15 03:07:08;;;;;;;4.10;1.67;;;;;;;;;;5092411;28;20544;-64
2023/03/15 03:09:35;;;;;;;3.65;2.10;;;;;;;;;;5092131;28;20189;-64
2023/03/15 03:12:02;;;;;;;6.50;1.77;;;;;;;;;;5092413;28;20241;-64
2023/03/15 03:14:30;;;;;;;8.30;2.35;;;;;;;;;;5092378;28;20189;-64
2023/03/15 03:16:57;;;;;;;4.18;1.65;;;;;;;;;;5092157;28;20346;-64
2023/03/15 03:19:25;;;;;;;4.07;1.30;;;;;;;;;;5092075;28;20644;-64
2023/03/15 03:21:52;;;;;;;5.03;1.70;;;;;;;;;;5092141;28;20193;-64
2023/03/15 03:24:20;;;;;;;5.53;1.58;;;;;;;;;;5092082;28;20197;-64
2023/03/15 03:26:47;;;;;;;3.17;1.35;;;;;;;;;;5092269;28;20236;-64
2023/03/15 03:29:15;;;;;;;4.68;1.30;;;;;;;;;;5092152;28;20195;-64
2023/03/15 03:31:42;;;;;;;4.00;1.60;;;;;;;;;;5092060;28;20189;-64
2023/03/15 03:34:13;;;;;;;6.85;1.70;;;;;;;;;;5091930;28;20651;-64
2023/03/15 03:36:41;;;;;;;5.53;1.35;;;;;;;;;;5091884;28;20217;-64
2023/03/15 03:39:08;;;;;;;5.68;1.35;;;;;;;;;;5092026;28;20299;-64
2023/03/15 03:41:35;;;;;;;2.88;1.55;;;;;;;;;;5092056;28;20189;-64
2023/03/15 03:44:02;;;;;;;7.80;1.83;;;;;;;;;;5092133;28;20288;-64
2023/03/15 03:46:29;;;;;;;6.70;1.67;;;;;;;;;;5092008;28;20199;-64
2023/03/15 03:48:56;;;;;;;3.72;1.23;;;;;;;;;;5091851;28;20648;-64
2023/03/15 03:51:23;;;;;;;2.92;1.10;;;;;;;;;;5094943;28;20287;-64
2023/03/15 03:53:52;;;;;;;5.78;1.23;;;;;;;;;;5095578;28;20189;-64
2023/03/15 03:56:18;;;;;;;9.70;1.55;;;;;;;;;;5095597;28;20680;-64
2023/03/15 03:58:45;;;;;;;6.22;1.40;;;;;;;;;;5095453;28;20193;-64
2023/03/15 04:01:12;;;;;;;10.80;2.10;;;;;;;;;;5095370;28;20199;-64
2023/03/15 04:03:39;;;;;;;3.17;1.58;;;;;;;;;;5095135;28;20195;-64
2023/03/15 04:06:06;;;;;;;6.68;1.52;;;;;;;;;;5095307;28;20222;-64
2023/03/15 04:08:33;;;;;;;2.88;1.38;;;;;;;;;;5095366;28;20284;-64
2023/03/15 04:11:02;;;;;;;8.00;2.65;;;;;;;;;;5095108;28;20188;-64
2023/03/15 04:13:30;;;;;;;7.50;1.50;;;;;;;;;;5095091;28;20185;-64
2023/03/15 04:15:57;;;;;;;7.68;1.80;;;;;;;;;;5094923;28;20219;-64
2023/03/15 04:18:24;;;;;;;5.13;1.60;;;;;;;;;;5094828;28;20221;-64
2023/03/15 04:20:53;;;;;;;3.92;1.67;;;;;;;;;;5094921;28;20275;-64
2023/03/15 04:23:20;;;;;;;5.30;1.95;;;;;;;;;;5095042;28;20197;-64
2023/03/15 04:25:48;;;;;;;5.55;1.52;;;;;;;;;;5094957;28;20220;-64
2023/03/15 04:28:16;;;;;;;6.82;1.63;;;;;;;;;;5094807;28;20282;-64
2023/03/15 04:30:43;;;;;;;7.57;1.42;;;;;;;;;;5094574;28;20216;-64
2023/03/15 04:33:10;;;;;;;4.32;1.73;;;;;;;;;;5094842;28;20284;-64
2023/03/15 04:35:38;;;;;;;5.25;1.80;;;;;;;;;;5094620;28;20263;-64
2023/03/15 04:38:05;;;;;;;2.60;1.40;;;;;;;;;;5094668;28;20189;-64
2023/03/15 04:40:34;;;;;;;5.03;1.80;;;;;;;;;;5094613;28;20578;-64
2023/03/15 04:43:02;;;;;;;4.32;1.25;;;;;;;;;;5094691;28;20193;-64
2023/03/15 04:45:31;;;;;;;8.43;1.90;;;;;;;;;;5094434;28;20193;-64
2023/03/15 04:47:58;;;;;;;5.75;1.20;;;;;;;;;;5094670;28;20189;-64
2023/03/15 04:50:26;;;;;;;3.55;1.35;;;;;;;;;;5094379;28;20188;-64
2023/03/15 04:52:53;;;;;;;7.10;2.17;;;;;;;;;;5094445;28;20196;-64
2023/03/15 04:55:20;;;;;;;4.95;1.55;;;;;;;;;;5094290;28;20244;-64
2023/03/15 04:57:47;;;;;;;5.78;1.20;;;;;;;;;;5094198;28;20189;-64
2023/03/15 05:00:14;;;;;;;9.02;1.60;;;;;;;;;;5093753;28;20681;-64
2023/03/15 05:02:42;;;;;;;4.90;1.30;;;;;;;;;;5094484;28;20275;-64
2023/03/15 05:05:09;;;;;;;3.75;1.50;;;;;;;;;;5094435;28;20288;-64
2023/03/15 05:07:37;;;;;;;7.47;1.75;;;;;;;;;;5094273;28;20214;-64
2023/03/15 05:10:04;;;;;;;3.75;2.00;;;;;;;;;;5093872;28;20215;-64
2023/03/15 05:12:32;;;;;;;7.78;2.35;;;;;;;;;;5093969;28;20196;-64
2023/03/15 05:14:59;;;;;;;6.20;1.70;;;;;;;;;;5094104;28;20193;-64
2023/03/15 05:17:26;;;;;;;6.10;2.45;;;;;;;;;;5093888;28;20242;-64
2023/03/15 05:19:55;;;;;;;8.95;2.70;;;;;;;;;;5093923;28;20191;-64
2023/03/15 05:22:24;;;;;;;11.50;2.28;;;;;;;;;;5093785;28;20202;-64
2023/03/15 05:24:52;;;;;;;3.63;1.65;;;;;;;;;;5093749;28;20204;-64
2023/03/15 05:27:19;;;;;;;3.80;1.20;;;;;;;;;;5093693;28;20652;-64
2023/03/15 05:29:46;;;;;;;4.78;2.20;;;;;;;;;;5093754;28;20600;-64
2023/03/15 05:32:14;;;;;;;5.07;1.73;;;;;;;;;;5093861;28;20561;-64
2023/03/15 05:34:41;;;;;;;6.90;2.03;;;;;;;;;;5093728;28;20220;-64
2023/03/15 05:37:11;;;;;;;12.35;3.40;;;;;;;;;;5093562;28;20330;-64
2023/03/15 05:39:38;;;;;;;13.70;1.75;;;;;;;;;;5093292;28;20563;-64
2023/03/15 05:42:05;;;;;;;6.18;1.88;;;;;;;;;;5093621;28;20654;-64
2023/03/15 05:44:32;;;;;;;11.77;2.65;;;;;;;;;;5093439;28;20275;-64
2023/03/15 05:46:59;;;;;;;7.88;2.03;;;;;;;;;;5093454;28;20286;-64
2023/03/15 05:49:26;;;;;;;6.60;1.80;;;;;;;;;;5093220;28;20192;-64
2023/03/15 05:51:53;;;;;;;6.72;2.20;;;;;;;;;;5093345;28;20208;-64
2023/03/15 05:54:21;;;;;;;5.65;2.38;;;;;;;;;;5093531;28;20540;-64
2023/03/15 05:56:48;;;;;;;4.32;2.08;;;;;;;;;;5093247;28;20217;-64
2023/03/15 05:59:15;;;;;;;3.95;1.80;;;;;;;;;;5093222;28;20235;-64
2023/03/15 06:01:42;;;;;;;6.95;1.70;;;;;;;;;;5093100;28;20195;-64
2023/03/15 06:04:09;;;;;;;5.32;2.92;;;;;;;;;;5092934;28;20195;-64
2023/03/15 06:06:35;;;;;;;6.38;1.65;;;;;;;;;;5092912;28;20280;-64
2023/03/15 06:09:02;;;;;;;4.95;1.92;;;;;;;;;;5093384;28;20188;-64
2023/03/15 06:11:31;;;;;;;3.58;1.65;;;;;;;;;;5092890;28;20280;-64
2023/03/15 06:13:58;;;;;;;4.70;1.75;;;;;;;;;;5092317;28;20191;-64
2023/03/15 06:16:25;;;;;;;3.15;1.63;;;;;;;;;;5092671;28;20220;-64
2023/03/15 06:18:51;;;;;;;6.30;2.03;;;;;;;;;;5092869;28;20185;-64
2023/03/15 06:21:18;;;;;;;4.20;1.40;;;;;;;;;;5092641;28;20185;-64
2023/03/15 06:23:45;;;;;;;3.13;1.85;;;;;;;;;;5092931;28;20223;-64
2023/03/15 06:26:13;;;;;;;6.55;2.00;;;;;;;;;;5092784;28;20551;-64
2023/03/15 06:28:42;;;;;;;5.68;2.20;;;;;;;;;;5092815;28;20185;-64
2023/03/15 06:31:09;;;;;;;4.20;1.40;;;;;;;;;;5092705;28;20595;-64
2023/03/15 06:33:36;;;;;;;8.68;1.83;;;;;;;;;;5092756;28;20185;-64
2023/03/15 06:36:03;;;;;;;3.88;1.10;;;;;;;;;;5092586;28;20223;-64
2023/03/15 06:38:31;;;;;;;8.32;1.92;;;;;;;;;;5092857;28;20189;-64
2023/03/15 06:40:58;;;;;;;6.20;2.15;;;;;;;;;;5092768;28;20189;-64
2023/03/15 06:43:25;;;;;;;7.13;1.83;;;;;;;;;;5093117;28;20200;-64
2023/03/15 06:45:54;;;;;;;5.45;1.50;;;;;;;;;;5092742;28;20533;-64
2023/03/15 06:48:21;;;;;;;5.25;1.75;;;;;;;;;;5092477;28;20188;-64
2023/03/15 06:50:48;;;;;;;3.20;1.48;;;;;;;;;;5092249;28;20670;-63
2023/03/15 06:53:16;;;;;;;5.57;1.50;;;;;;;;;;5092521;28;20316;-64
2023/03/15 06:55:43;;;;;;;6.63;1.80;;;;;;;;;;5092600;28;20244;-64
2023/03/15 06:58:10;;;;;;;5.90;1.93;;;;;;;;;;5092857;28;20189;-63
2023/03/15 07:00:37;;;;;;;8.50;2.08;;;;;;;;;;5092179;28;20496;-63
2023/03/15 07:03:06;;;;;;;6.80;1.98;;;;;;;;;;5092329;28;20238;-64
2023/03/15 07:05:32;;;;;;;6.57;1.77;;;;;;;;;;5092711;28;20543;-64
2023/03/15 07:07:59;;;;;;;8.38;2.60;;;;;;;;;;5092530;28;20446;-64
2023/03/15 07:10:26;;;;;;;7.70;2.17;;;;;;;;;;5092430;28;20714;-64
2023/03/15 07:12:53;;;;;;;5.30;1.95;;;;;;;;;;5092445;28;20188;-63
2023/03/15 07:15:20;;;;;;;5.82;2.20;;;;;;;;;;5092355;28;20202;-64
2023/03/15 07:17:47;;;;;;;4.95;2.58;;;;;;;;;;5092259;28;20235;-63
2023/03/15 07:20:15;;;;;;;5.95;1.98;;;;;;;;;;5092614;28;20556;-63
2023/03/15 07:22:44;;;;;;;7.97;1.92;;;;;;;;;;5092459;28;20197;-63
2023/03/15 07:25:11;;;;;;;6.88;2.13;;;;;;;;;;5095864;28;20239;-63
2023/03/15 07:27:38;;;;;;;5.00;1.98;;;;;;;;;;5096803;28;20193;-63
2023/03/15 07:30:06;;;;;;;3.75;1.80;;;;;;;;;;5096131;28;20547;-64
2023/03/15 07:32:33;;;;;;;9.60;2.00;;;;;;;;;;5096375;28;20196;-63
2023/03/15 07:35:00;;;;;;;3.85;1.77;;;;;;;;;;5096709;28;20199;-64
2023/03/15 07:37:28;;;;;;;8.73;2.28;;;;;;;;;;5095952;28;20710;-63
2023/03/15 07:39:57;;;;;;;6.63;2.33;;;;;;;;;;5096012;28;20224;-63
2023/03/15 07:42:24;;;;;;;5.20;1.67;;;;;;;;;;5095933;28;20196;-63
2023/03/15 07:44:51;;;;;;;4.43;1.50;;;;;;;;;;5096162;28;20530;-63
2023/03/15 07:47:18;;;;;;;4.78;1.58;;;;;;;;;;5096139;28;20219;-63
2023/03/15 07:49:45;;;;;;;10.65;2.55;;;;;;;;;;5096032;28;20284;-63
2023/03/15 07:52:12;;;;;;;5.60;2.50;;;;;;;;;;5095866;28;20185;-63
2023/03/15 07:54:40;;;;;;;5.88;2.40;;;;;;;;;;5095871;28;20541;-63
2023/03/15 07:57:08;;;;;;;3.15;1.60;;;;;;;;;;5095571;28;20308;-63
2023/03/15 07:59:34;;;;;;;6.70;2.20;;;;;;;;;;5095652;28;20529;-63
2023/03/15 08:02:01;;;;;;;4.18;2.00;;;;;;;;;;5095750;28;20191;-63
2023/03/15 08:04:28;;;;;;;6.20;2.25;;;;;;;;;;5095757;28;20223;-63
2023/03/15 08:06:55;;;;;;;5.80;2.00;;;;;;;;;;5095645;28;20189;-63
2023/03/15 08:09:22;;;;;;;8.40;2.10;;;;;;;;;;5095903;28;20195;-63
2023/03/15 08:11:50;;;;;;;6.95;1.90;;;;;;;;;;5095420;28;20447;-63
2023/03/15 08:14:17;;;;;;;5.45;1.90;;;;;;;;;;5095602;28;20192;-63
2023/03/15 08:16:44;;;;;;;4.00;2.40;;;;;;;;;;5095259;28;20579;-64
2023/03/15 08:19:11;;;;;;;6.68;2.15;;;;;;;;;;5095463;28;20185;-64
2023/03/15 08:21:38;;;;;;;6.78;2.35;;;;;;;;;;5095186;28;20185;-64
2023/03/15 08:24:05;;;;;;;8.87;2.83;;;;;;;;;;5095149;28;20249;-68
2023/03/15 08:26:32;;;;;;;11.73;2.40;;;;;;;;;;5095347;28;20537;-70
2023/03/15 08:29:01;;;;;;;7.03;2.53;;;;;;;;;;5095188;28;20193;-63
2023/03/15 08:31:28;;;;;;;3.93;2.10;;;;;;;;;;5095007;28;20970;-62
2023/03/15 08:33:55;;;;;;;4.60;2.00;;;;;;;;;;5094851;28;20486;-64
2023/03/15 08:36:22;;;;;;;7.20;2.00;;;;;;;;;;5094201;28;20471;-63
2023/03/15 08:38:48;;;;;;;7.85;2.78;;;;;;;;;;5094782;28;20453;-61
2023/03/15 08:41:15;;;;;;;10.75;3.53;;;;;;;;;;5094855;28;20222;-66
2023/03/15 08:43:42;;;;;;;8.57;3.13;;;;;;;;;;5095003;28;20276;-68
2023/03/15 08:46:11;;;;;;;10.03;2.37;;;;;;;;;;5094859;28;20805;-64
2023/03/15 08:48:38;;;;;;;4.97;2.30;;;;;;;;;;5094437;28;20925;-67
2023/03/15 08:51:07;;;;;;;8.30;2.47;;;;;;;;;;5094308;28;20991;-66
2023/03/15 08:53:34;;;;;;;6.18;2.05;;;;;;;;;;5094464;28;20504;-62
2023/03/15 08:56:01;;;;;;;10.40;2.83;;;;;;;;;;5094614;28;20191;-63
2023/03/15 08:58:28;;;;;;;6.03;2.20;;;;;;;;;;5094323;28;20450;-70
2023/03/15 09:00:56;;;;;;;5.88;2.20;;;;;;;;;;5094457;28;20466;-66
2023/03/15 09:03:24;;;;;;;9.50;2.20;;;;;;;;;;5094389;28;20189;-68
2023/03/15 09:05:55;;;;;;;4.18;2.40;;;;;;;;;;5094001;28;20447;-68
2023/03/15 09:08:24;;;;;;;8.00;3.60;;;;;;;;;;5094533;28;20276;-68
2023/03/15 09:10:53;;;;;;;6.97;2.87;;;;;;;;;;5094369;28;20591;-67
2023/03/15 09:13:20;;;;;;;8.63;3.07;;;;;;;;;;5094174;28;20553;-66
2023/03/15 09:15:49;;;;;;;7.33;2.73;;;;;;;;;;5094111;28;20534;-68
2023/03/15 09:18:16;;;;;;;8.73;3.07;;;;;;;;;;5093731;28;20582;-68
2023/03/15 09:20:45;;;;;;;7.17;2.37;;;;;;;;;;5094199;28;20500;-62
2023/03/15 09:23:12;;;;;;;6.03;3.00;;;;;;;;;;5094127;28;20447;-63
2023/03/15 09:25:39;;;;;;;8.97;2.90;;;;;;;;;;5093977;28;20242;-61
2023/03/15 09:28:07;;;;;;;17.40;3.20;;;;;;;;;;5093561;28;20945;-62
2023/03/15 09:30:34;;;;;;;5.40;3.00;;;;;;;;;;5093395;28;20451;-62
2023/03/15 09:33:01;;;;;;;3.20;2.17;;;;;;;;;;5093499;28;20538;-61
2023/03/15 09:35:28;;;;;;;4.70;3.30;;;;;;;;;;5093771;28;20538;-64
2023/03/15 09:37:56;;;;;;;6.13;2.70;;;;;;;;;;5093576;28;20541;-69
2023/03/15 09:40:25;;;;;;;4.63;2.57;;;;;;;;;;5093704;28;20454;-67
2023/03/15 09:42:56;;;;;;;3.60;2.73;;;;;;;;;;5093571;28;20447;-68
2023/03/15 09:45:27;;;;;;;9.03;3.00;;;;;;;;;;5093592;28;20447;-62
2023/03/15 09:47:59;;;;;;;6.20;2.73;;;;;;;;;;5092853;28;20508;-70
2023/03/15 09:50:27;;;;;;;5.53;2.58;;;;;;;;;;5093548;28;20451;-72
2023/03/15 09:52:58;;;;;;;6.80;3.00;;;;;;;;;;5093511;28;20204;-66
2023/03/15 09:55:26;;;;;;;4.87;2.37;;;;;;;;;;5093345;28;20483;-73
2023/03/15 09:57:55;;;;;;;7.37;2.80;;;;;;;;;;5093017;28;20830;-69
2023/03/15 10:00:24;;;;;;;6.50;2.30;;;;;;;;;;5093353;28;20505;-73
2023/03/15 10:02:58;;;;;;;4.77;2.23;;;;;;;;;;5093397;28;20447;-66
2023/03/15 10:05:28;;;;;;;6.80;3.17;;;;;;;;;;5093416;28;20451;-71
2023/03/15 10:07:57;;;;;;;3.83;2.33;;;;;;;;;;5093224;28;20451;-66
2023/03/15 10:10:28;;;;;;;5.97;2.07;;;;;;;;;;5092972;28;20457;-68
2023/03/15 10:13:00;;;;;;;9.70;2.20;;;;;;;;;;5093390;28;20482;-60
2023/03/15 10:15:32;;;;;;;4.13;2.30;;;;;;;;;;5093207;28;20455;-60
2023/03/15 10:18:12;;;;;;;3.87;2.50;;;;;;;;;;5092825;28;20582;-66
2023/03/15 10:20:41;;;;;;;3.30;1.67;;;;;;;;;;5092910;28;20451;-66
2023/03/15 10:23:14;;;;;;;3.40;1.70;;;;;;;;;;5093129;28;20454;-67
2023/03/15 10:25:41;;;;;;;3.73;2.37;;;;;;;;;;5093336;28;20462;-66
2023/03/15 10:28:11;;;;;;;6.30;2.13;;;;;;;;;;5092992;28;20461;-63
2023/03/15 10:30:39;;;;;;;2.70;2.20;;;;;;;;;;5092771;28;20516;-61
2023/03/15 10:33:11;;;;;;;2.70;1.63;;;;;;;;;;5092747;28;20451;-63
2023/03/15 10:35:38;;;;;;;5.27;1.80;;;;;;;;;;5092755;28;21001;-64
2023/03/15 10:38:15;;;;;;;8.53;1.90;;;;;;;;;;5092870;28;20582;-60
2023/03/15 10:40:43;;;;;;;5.30;3.13;;;;;;;;;;5092827;28;20984;-69
2023/03/15 10:43:17;;;;;;;2.47;2.07;;;;;;;;;;5092792;28;20453;-65
2023/03/15 10:45:47;;;;;;;5.53;2.67;;;;;;;;;;5092844;28;20451;-75
2023/03/15 10:48:14;;;;;;;6.10;1.90;;;;;;;;;;5092887;28;20541;-70
2023/03/15 10:50:41;;;;;;;5.80;2.40;;;;;;;;;;5092788;28;20457;-62
2023/03/15 10:53:10;;;;;;;9.57;2.60;;;;;;;;;;5092776;28;20809;-68
2023/03/15 10:55:42;;;;;;;2.70;1.57;;;;;;;;;;5092661;28;20465;-64
2023/03/15 10:58:15;;;;;;;7.67;1.77;;;;;;;;;;5092694;28;20585;-67
2023/03/15 11:00:49;;;;;;;3.67;1.70;;;;;;;;;;5096948;28;20500;-77
2023/03/15 11:03:18;;;;;;;1.70;1.40;;;;;;;;;;5096744;28;20453;-77
2023/03/15 11:05:47;;;;;;;2.50;1.77;;;;;;;;;;5096902;28;20455;-64
2023/03/15 11:08:14;;;;;;;2.17;1.50;;;;;;;;;;5096664;28;20638;-67
2023/03/15 11:10:44;;;;;;;4.37;2.30;;;;;;;;;;5096529;28;20455;-61
2023/03/15 11:13:14;;;;;;;7.70;1.77;;;;;;;;;;5096840;28;20457;-62
2023/03/15 11:15:47;;;;;;;2.70;1.83;;;;;;;;;;5096605;28;20569;-59
2023/03/15 11:18:18;;;;;;;1.40;1.30;;;;;;;;;;5096130;28;20798;-61
2023/03/15 11:20:45;;;;;;;2.03;1.10;;;;;;;;;;5096216;28;20846;-62
2023/03/15 11:23:14;;;;;;;5.67;1.33;;;;;;;;;;5096200;28;20454;-62
2023/03/15 11:25:43;;;;;;;3.77;1.57;;;;;;;;;;5096439;28;20443;-67
2023/03/15 11:28:15;;;;;;;5.80;1.73;;;;;;;;;;5096105;28;20453;-67
2023/03/15 11:30:42;;;;;;;3.03;1.90;;;;;;;;;;5096101;28;20537;-63
2023/03/15 11:33:10;;;;;;;2.70;2.00;;;;;;;;;;5096074;28;20447;-73
2023/03/15 11:35:40;;;;;;;2.43;1.50;;;;;;;;;;5096152;28;20451;-64
2023/03/15 11:38:11;;;;;;;2.37;1.20;;;;;;;;;;5096322;28;20569;-65
2023/03/15 11:40:40;;;;;;;2.40;1.20;;;;;;;;;;5095971;28;20454;-65
2023/03/15 11:43:11;;;;;;;2.23;1.50;;;;;;;;;;5095740;28;20500;-66
2023/03/15 11:45:42;;;;;;;4.23;1.40;;;;;;;;;;5095830;28;20545;-65
2023/03/15 11:48:12;;;;;;;3.17;2.03;;;;;;;;;;5095538;28;20802;-65
2023/03/15 11:50:39;;;;;;;6.80;2.00;;;;;;;;;;5096016;28;20447;-60
2023/03/15 11:53:07;;;;;;;1.70;1.27;;;;;;;;;;5096038;28;20451;-61
2023/03/15 11:55:34;;;;;;;2.50;1.40;;;;;;;;;;5095892;28;20443;-65
2023/03/15 11:58:27;;;;;;;1.90;1.10;;;;;;;;;;5095594;28;20481;-74
2023/03/15 12:00:56;;;;;;;1.90;1.33;;;;;;;;;;5095509;28;20457;-78
2023/03/15 12:03:25;;;;;;;4.00;1.73;;;;;;;;;;5095647;28;20451;-71
2023/03/15 12:05:53;;;;;;;5.20;1.57;;;;;;;;;;5095670;28;20543;-68
2023/03/15 12:08:23;;;;;;;4.20;2.43;;;;;;;;;;5095594;28;20861;-61
2023/03/15 12:10:51;;;;;;;2.70;1.50;;;;;;;;;;5094349;28;20459;-66
2023/03/15 12:13:20;;;;;;;8.00;2.17;;;;;;;;;;5095238;28;20950;-68
2023/03/15 12:15:49;;;;;;;3.33;1.57;;;;;;;;;;5095321;28;20447;-70
2023/03/15 12:18:20;;;;;;;8.10;1.93;;;;;;;;;;5094852;28;20573;-66
2023/03/15 12:20:52;;;;;;;4.70;2.13;;;;;;;;;;5095065;28;20532;-65
2023/03/15 12:23:29;;;;;;;5.00;1.70;;;;;;;;;;5094904;28;20447;-66
2023/03/15 12:25:57;;;;;;;3.80;1.30;;;;;;;;;;5094787;28;20508;-65
2023/03/15 12:28:27;;;;;;;3.00;1.50;;;;;;;;;;5095396;28;20447;-66
2023/03/15 12:30:55;;;;;;;3.30;1.57;;;;;;;;;;5095154;28;20450;-66
2023/03/15 12:33:23;;;;;;;1.30;1.00;;;;;;;;;;5095205;28;20783;-66
2023/03/15 12:35:51;;;;;;;1.97;1.47;;;;;;;;;;5095011;28;20534;-66
2023/03/15 12:38:19;;;;;;;2.17;1.30;;;;;;;;;;5094800;28;21021;-66
2023/03/15 12:40:52;;;;;;;6.30;1.30;;;;;;;;;;5094923;28;20473;-66
2023/03/15 12:43:34;;;;;;;7.13;1.37;;;;;;;;;;5094969;28;20451;-66
2023/03/15 12:46:02;;;;;;;2.83;1.00;;;;;;;;;;5094869;28;20443;-66
2023/03/15 12:48:30;;;;;;;1.80;1.20;;;;;;;;;;5094679;28;20482;-66
2023/03/15 12:51:13;;;;;;;3.17;1.30;;;;;;;;;;5094481;28;20443;-65
2023/03/15 12:53:42;;;;;;;5.40;1.57;;;;;;;;;;5094989;28;20464;-66
2023/03/15 12:56:19;;;;;;;1.77;0.90;;;;;;;;;;5094637;28;20873;-66
2023/03/15 12:58:47;;;;;;;3.70;1.20;;;;;;;;;;5094559;28;20483;-66
2023/03/15 13:01:17;;;;;;;2.00;1.27;;;;;;;;;;5094265;28;20454;-66
2023/03/15 13:03:44;;;;;;;3.23;1.40;;;;;;;;;;5094595;28;20537;-66
2023/03/15 13:06:14;;;;;;;4.30;1.67;;;;;;;;;;5094426;28;20459;-66
2023/03/15 13:08:44;;;;;;;1.83;1.30;;;;;;;;;;5094262;28;20792;-66
2023/03/15 13:11:17;;;;;;;1.40;1.20;;;;;;;;;;5094325;28;20439;-66
2023/03/15 13:13:55;;;;;;;4.40;1.30;;;;;;;;;;5094319;28;20447;-66
2023/03/15 13:16:29;;;;;;;4.50;1.50;;;;;;;;;;5094214;28;20451;-66
2023/03/15 13:18:59;;;;;;;5.63;1.87;;;;;;;;;;5094257;28;20930;-66
2023/03/15 13:21:28;;;;;;;2.20;1.20;;;;;;;;;;5093825;28;20479;-66
2023/03/15 13:23:58;;;;;;;2.10;1.17;;;;;;;;;;5094211;28;20859;-66
2023/03/15 13:26:42;;;;;;;4.50;1.50;;;;;;;;;;5094015;28;20455;-66
2023/03/15 13:29:14;;;;;;;2.60;1.47;;;;;;;;;;5093960;28;20442;-66
2023/03/15 13:31:43;;;;;;;3.10;1.33;;;;;;;;;;5093984;28;20577;-65
2023/03/15 13:34:14;;;;;;;3.23;1.57;;;;;;;;;;5093807;28;20963;-66
2023/03/15 13:36:43;;;;;;;4.17;1.40;;;;;;;;;;5093719;28;20806;-66
2023/03/15 13:39:11;;;;;;;4.03;1.53;;;;;;;;;;5093780;28;20482;-66
2023/03/15 13:41:39;;;;;;;2.07;1.13;;;;;;;;;;5093623;28;20564;-66
2023/03/15 13:44:14;;;;;;;2.90;1.30;;;;;;;;;;5093704;28;20443;-66
2023/03/15 13:46:42;;;;;;;2.77;1.30;;;;;;;;;;5093509;28;20450;-66
2023/03/15 13:49:11;;;;;;;3.10;1.60;;;;;;;;;;5093406;28;20482;-66
2023/03/15 13:51:38;;;;;;;2.73;1.03;;;;;;;;;;5093603;28;20458;-66
2023/03/15 13:54:06;;;;;;;3.17;1.43;;;;;;;;;;5093625;28;20542;-66
2023/03/15 13:56:34;;;;;;;1.73;1.00;;;;;;;;;;5093517;28;20453;-66
2023/03/15 13:59:03;;;;;;;1.63;1.10;;;;;;;;;;5093424;28;20511;-66
2023/03/15 14:01:34;;;;;;;3.87;1.30;;;;;;;;;;5093357;28;20447;-66
2023/03/15 14:04:05;;;;;;;2.30;1.03;;;;;;;;;;5093591;28;21028;-66
2023/03/15 14:06:32;;;;;;;3.03;1.10;;;;;;;;;;5093386;28;20451;-66
2023/03/15 14:09:02;;;;;;;5.27;1.23;;;;;;;;;;5093387;28;20485;-66
2023/03/15 14:11:35;;;;;;;3.90;1.17;;;;;;;;;;5093275;28;20806;-66
2023/03/15 14:14:04;;;;;;;3.47;1.27;;;;;;;;;;5093134;28;20443;-66
2023/03/15 14:16:32;;;;;;;2.17;1.00;;;;;;;;;;5093265;28;20451;-66
2023/03/15 14:19:15;;;;;;;7.87;1.93;;;;;;;;;;5093068;28;20482;-66
2023/03/15 14:21:43;;;;;;;4.20;1.30;;;;;;;;;;5093198;28;20439;-66
2023/03/15 14:24:14;;;;;;;5.63;1.40;;;;;;;;;;5093117;28;20454;-66
2023/03/15 14:26:41;;;;;;;3.90;1.37;;;;;;;;;;5092863;28;20457;-66
2023/03/15 14:29:16;;;;;;;6.83;1.93;;;;;;;;;;5092975;28;20542;-65
2023/03/15 14:31:48;;;;;;;5.70;1.70;;;;;;;;;;5092766;28;21122;-66
2023/03/15 14:34:22;;;;;;;2.87;1.30;;;;;;;;;;5092532;28;20946;-66
2023/03/15 14:36:50;;;;;;;4.80;1.63;;;;;;;;;;5092964;28;20437;-66
2023/03/15 14:39:19;;;;;;;2.27;1.30;;;;;;;;;;5092678;28;20501;-66
2023/03/15 14:41:46;;;;;;;7.60;2.13;;;;;;;;;;5092946;28;20485;-66
2023/03/15 14:44:13;;;;;;;4.13;1.43;;;;;;;;;;5093032;28;20453;-65
2023/03/15 14:46:40;;;;;;;6.57;1.63;;;;;;;;;;5092838;28;20457;-65
2023/03/15 14:49:07;;;;;;;2.03;1.10;;;;;;;;;;5092849;28;20473;-66
2023/03/15 14:51:35;;;;;;;5.83;1.83;;;;;;;;;;5092695;28;20814;-66